createdAt,value
2023-02-02T00:02:24.621Z,57.57
2023-02-02T00:04:53.078Z,57.53
2023-02-02T00:07:21.453Z,57.39
2023-02-02T00:09:49.751Z,57.21
2023-02-02T00:12:18.048Z,57.26
2023-02-02T00:14:46.605Z,57.27
2023-02-02T00:17:15.468Z,57.17
2023-02-02T00:19:46.209Z,57.25
2023-02-02T00:22:15.815Z,57.28
2023-02-02T00:24:44.326Z,57.22
2023-02-02T00:27:13.292Z,57.26
2023-02-02T00:29:41.873Z,56.93
2023-02-02T00:32:10.567Z,57.00
2023-02-02T00:34:41.494Z,57.15
2023-02-02T00:37:09.803Z,57.60
2023-02-02T00:39:38.760Z,57.80
2023-02-02T00:42:07.146Z,57.65
2023-02-02T00:44:54.053Z,57.78
2023-02-02T00:47:22.839Z,57.55
2023-02-02T00:49:51.551Z,57.90
2023-02-02T00:52:19.808Z,58.01
2023-02-02T00:54:48.587Z,58.02
2023-02-02T00:57:16.973Z,58.12
2023-02-02T00:59:45.651Z,58.05
2023-02-02T01:02:14.420Z,57.91
2023-02-02T01:04:43.128Z,57.91
2023-02-02T01:07:11.605Z,57.92
2023-02-02T01:09:39.996Z,57.91
2023-02-02T01:12:11.022Z,57.93
2023-02-02T01:14:39.816Z,57.92
2023-02-02T01:17:08.298Z,57.89
2023-02-02T01:19:36.717Z,57.74
2023-02-02T01:22:05.368Z,57.68
2023-02-02T01:24:33.629Z,57.65
2023-02-02T01:27:02.846Z,57.75
2023-02-02T01:29:33.665Z,57.71
2023-02-02T01:32:02.143Z,57.93
2023-02-02T01:34:30.934Z,57.98
2023-02-02T01:36:59.240Z,58.06
2023-02-02T01:39:28.093Z,57.90
2023-02-02T01:41:57.707Z,57.91
2023-02-02T01:45:11.154Z,57.92
2023-02-02T01:47:53.166Z,57.93
2023-02-02T01:50:23.416Z,57.95
2023-02-02T01:52:51.836Z,58.00
2023-02-02T01:55:22.172Z,58.14
2023-02-02T01:58:02.834Z,58.25
2023-02-02T02:00:31.542Z,58.43
2023-02-02T02:03:12.799Z,58.15
2023-02-02T02:05:43.110Z,58.01
2023-02-02T02:08:24.174Z,58.18
2023-02-02T02:10:52.981Z,58.61
2023-02-02T02:13:23.169Z,58.65
2023-02-02T02:16:21.597Z,58.62
2023-02-02T02:19:02.858Z,58.36
2023-02-02T02:22:05.949Z,58.44
2023-02-02T02:25:03.619Z,58.30
2023-02-02T02:27:56.266Z,58.14
2023-02-02T02:30:24.781Z,58.23
2023-02-02T02:33:04.915Z,58.26
2023-02-02T02:35:41.699Z,58.33
2023-02-02T02:38:29.298Z,58.31
2023-02-02T02:41:00.440Z,58.22
2023-02-02T02:43:31.262Z,58.19
2023-02-02T02:45:59.905Z,58.21
2023-02-02T02:48:29.681Z,58.22
2023-02-02T02:51:29.898Z,58.22
2023-02-02T02:53:58.992Z,58.37
2023-02-02T02:56:35.978Z,58.38
2023-02-02T02:59:44.796Z,58.40
2023-02-02T03:02:17.145Z,58.42
2023-02-02T03:04:56.710Z,58.32
2023-02-02T03:07:29.196Z,58.40
2023-02-02T03:09:57.668Z,58.40
2023-02-02T03:12:25.951Z,58.31
2023-02-02T03:14:54.936Z,58.59
2023-02-02T03:17:23.219Z,58.50
2023-02-02T03:19:51.689Z,58.74
2023-02-02T03:22:20.169Z,58.60
2023-02-02T03:24:48.444Z,58.60
2023-02-02T03:27:16.924Z,58.23
2023-02-02T03:29:45.813Z,58.18
2023-02-02T03:32:14.293Z,58.36
2023-02-02T03:34:42.876Z,58.75
2023-02-02T03:37:11.268Z,58.47
2023-02-02T03:39:40.044Z,58.44
2023-02-02T03:42:08.522Z,58.30
2023-02-02T03:44:37.820Z,58.22
2023-02-02T03:47:06.232Z,58.25
2023-02-02T03:49:34.658Z,58.43
2023-02-02T03:52:05.211Z,58.55
2023-02-02T03:54:33.687Z,59.00
2023-02-02T03:57:02.167Z,59.04
2023-02-02T03:59:31.168Z,59.01
2023-02-02T04:01:59.483Z,58.87
2023-02-02T04:04:28.328Z,58.69
2023-02-02T04:06:58.957Z,58.71
2023-02-02T04:09:28.371Z,58.66
2023-02-02T04:11:56.841Z,58.95
2023-02-02T04:14:25.423Z,59.08
2023-02-02T04:16:54.037Z,58.40
2023-02-02T04:19:24.873Z,58.30
2023-02-02T04:21:54.038Z,58.26
2023-02-02T04:24:22.315Z,58.46
2023-02-02T04:26:51.055Z,58.48
2023-02-02T04:29:19.531Z,58.75
2023-02-02T04:31:48.229Z,58.93
2023-02-02T04:34:16.749Z,58.93
2023-02-02T04:36:45.255Z,59.14
2023-02-02T04:39:13.810Z,59.10
2023-02-02T04:41:42.497Z,59.05
2023-02-02T04:44:18.676Z,59.48
2023-02-02T04:46:50.108Z,59.55
2023-02-02T04:49:18.619Z,59.86
2023-02-02T04:51:47.273Z,60.02
2023-02-02T04:54:19.232Z,59.90
2023-02-02T04:56:47.611Z,59.90
2023-02-02T04:59:16.298Z,59.99
2023-02-02T05:01:44.903Z,59.98
2023-02-02T05:04:13.504Z,60.17
2023-02-02T05:06:41.841Z,60.38
2023-02-02T05:09:11.040Z,60.47
2023-02-02T05:11:41.259Z,60.30
2023-02-02T05:14:09.947Z,60.18
2023-02-02T05:16:40.296Z,60.13
2023-02-02T05:19:10.342Z,60.22
2023-02-02T05:21:39.398Z,60.27
2023-02-02T05:24:07.779Z,60.23
2023-02-02T05:26:36.067Z,60.14
2023-02-02T05:29:04.410Z,60.16
2023-02-02T05:31:33.562Z,59.97
2023-02-02T05:34:02.088Z,59.67
2023-02-02T05:36:30.980Z,59.70
2023-02-02T05:39:00.685Z,59.67
2023-02-02T05:41:30.158Z,59.66
2023-02-02T05:44:01.915Z,59.44
2023-02-02T05:46:30.744Z,59.62
2023-02-02T05:48:59.641Z,59.40
2023-02-02T05:51:33.856Z,59.24
2023-02-02T05:54:02.677Z,59.23
2023-02-02T05:56:31.330Z,59.51
2023-02-02T05:59:00.413Z,60.06
2023-02-02T06:01:29.100Z,60.59
2023-02-02T06:03:57.787Z,60.35
2023-02-02T06:06:26.278Z,60.05
2023-02-02T06:08:54.885Z,59.74
2023-02-02T06:11:23.629Z,59.11
2023-02-02T06:13:52.314Z,58.84
2023-02-02T06:16:20.801Z,58.64
2023-02-02T06:18:49.171Z,58.40
2023-02-02T06:21:20.037Z,58.61
2023-02-02T06:23:48.364Z,58.47
2023-02-02T06:26:17.038Z,58.38
2023-02-02T06:28:49.339Z,58.13
2023-02-02T06:31:20.682Z,57.86
2023-02-02T06:33:53.988Z,57.46
2023-02-02T06:36:22.381Z,57.31
2023-02-02T06:38:54.728Z,57.40
2023-02-02T06:41:23.217Z,56.85
2023-02-02T06:43:52.204Z,56.69
2023-02-02T06:46:20.806Z,56.43
2023-02-02T06:48:49.166Z,56.12
2023-02-02T06:51:17.644Z,56.05
2023-02-02T06:53:48.476Z,55.96
2023-02-02T06:56:17.272Z,55.79
2023-02-02T06:58:45.867Z,55.52
2023-02-02T07:01:14.591Z,55.36
2023-02-02T07:03:43.437Z,55.44
2023-02-02T07:06:25.631Z,55.40
2023-02-02T07:09:02.037Z,55.50
2023-02-02T07:11:35.565Z,56.03
2023-02-02T07:14:07.149Z,56.14
2023-02-02T07:16:35.627Z,56.22
2023-02-02T07:19:04.311Z,56.22
2023-02-02T07:21:36.404Z,56.28
2023-02-02T07:24:06.087Z,56.15
2023-02-02T07:26:36.319Z,55.69
2023-02-02T07:29:05.094Z,55.57
2023-02-02T07:31:36.740Z,55.47
2023-02-02T07:34:06.157Z,55.44
2023-02-02T07:36:34.634Z,55.33
2023-02-02T07:39:05.273Z,55.47
2023-02-02T07:41:35.306Z,55.36
2023-02-02T07:44:04.590Z,55.25
2023-02-02T07:46:32.938Z,55.09
2023-02-02T07:49:01.333Z,54.97
2023-02-02T07:51:29.717Z,54.80
2023-02-02T07:53:59.725Z,54.70
2023-02-02T07:56:28.534Z,54.72
2023-02-02T07:58:57.204Z,55.00
2023-02-02T08:01:26.605Z,55.16
2023-02-02T08:03:55.802Z,55.10
2023-02-02T08:06:24.841Z,55.04
2023-02-02T08:08:53.275Z,54.96
2023-02-02T08:11:23.298Z,54.74
2023-02-02T08:13:53.530Z,54.46
2023-02-02T08:16:22.245Z,54.24
2023-02-02T08:18:50.894Z,54.56
2023-02-02T08:21:19.927Z,54.38
2023-02-02T08:23:48.352Z,54.31
2023-02-02T08:26:19.314Z,54.46
2023-02-02T08:28:48.941Z,54.34
2023-02-02T08:31:21.955Z,54.33
2023-02-02T08:33:50.467Z,54.33
2023-02-02T08:36:19.898Z,54.36
2023-02-02T08:38:48.309Z,54.30
2023-02-02T08:41:19.596Z,53.71
2023-02-02T08:43:48.382Z,53.71
2023-02-02T08:46:18.390Z,54.33
2023-02-02T08:48:47.288Z,54.36
2023-02-02T08:51:17.063Z,54.60
2023-02-02T08:53:45.785Z,54.73
2023-02-02T08:56:15.813Z,54.97
2023-02-02T08:58:45.930Z,54.94
2023-02-02T09:01:19.557Z,54.64
2023-02-02T09:03:48.000Z,54.34
2023-02-02T09:06:19.354Z,54.07
2023-02-02T09:08:47.991Z,53.94
2023-02-02T09:11:17.718Z,54.18
2023-02-02T09:13:47.232Z,54.06
2023-02-02T09:16:17.727Z,53.90
2023-02-02T09:18:46.187Z,53.74
2023-02-02T09:21:16.066Z,53.51
2023-02-02T09:23:44.865Z,53.49
2023-02-02T09:26:17.979Z,53.31
2023-02-02T09:28:48.303Z,53.26
2023-02-02T09:31:17.073Z,53.20
2023-02-02T09:33:45.809Z,53.25
2023-02-02T09:36:15.774Z,53.08
2023-02-02T09:38:44.336Z,53.19
2023-02-02T09:41:27.771Z,53.29
2023-02-02T09:44:15.295Z,53.42
2023-02-02T09:47:02.013Z,53.38
2023-02-02T09:49:43.199Z,53.40
2023-02-02T09:52:17.689Z,53.49
2023-02-02T09:54:47.827Z,53.40
2023-02-02T09:57:29.403Z,53.42
2023-02-02T09:59:57.724Z,53.05
2023-02-02T10:02:33.865Z,52.99
2023-02-02T10:05:09.701Z,53.03
2023-02-02T10:07:40.692Z,52.97
2023-02-02T10:10:26.098Z,52.80
2023-02-02T10:13:00.351Z,52.82
2023-02-02T10:15:50.864Z,52.81
2023-02-02T10:18:42.959Z,52.93
2023-02-02T10:21:42.982Z,52.95
2023-02-02T10:24:24.887Z,53.17
2023-02-02T10:27:09.636Z,53.23
2023-02-02T10:29:49.106Z,53.22
2023-02-02T10:32:31.188Z,53.09
2023-02-02T10:35:37.442Z,53.06
2023-02-02T10:38:16.469Z,52.92
2023-02-02T10:41:04.813Z,52.93
2023-02-02T10:44:01.661Z,52.71
2023-02-02T10:46:51.008Z,52.77
2023-02-02T10:49:24.428Z,52.81
2023-02-02T10:52:17.609Z,52.66
2023-02-02T10:54:59.545Z,52.73
2023-02-02T10:57:35.021Z,52.81
2023-02-02T11:00:11.112Z,52.83
2023-02-02T11:02:39.593Z,53.03
2023-02-02T11:05:32.832Z,52.91
2023-02-02T11:08:01.305Z,52.85
2023-02-02T11:10:31.763Z,52.56
2023-02-02T11:13:02.091Z,52.52
2023-02-02T11:15:30.843Z,52.67
2023-02-02T11:18:22.395Z,52.77
2023-02-02T11:20:51.049Z,52.85
2023-02-02T11:23:20.044Z,52.75
2023-02-02T11:25:58.287Z,52.59
2023-02-02T11:28:30.532Z,52.48
2023-02-02T11:30:59.720Z,52.25
2023-02-02T11:33:33.322Z,52.28
2023-02-02T11:36:23.134Z,52.06
2023-02-02T11:39:15.333Z,51.78
2023-02-02T11:41:43.925Z,51.90
2023-02-02T11:44:29.289Z,51.89
2023-02-02T11:46:57.871Z,52.14
2023-02-02T11:49:26.616Z,52.00
2023-02-02T11:52:06.195Z,51.79
2023-02-02T11:54:35.734Z,51.56
2023-02-02T11:57:10.022Z,51.62
2023-02-02T11:59:40.032Z,51.84
2023-02-02T12:02:20.970Z,51.69
2023-02-02T12:05:16.424Z,51.21
2023-02-02T12:07:45.316Z,51.74
2023-02-02T12:10:20.349Z,51.92
2023-02-02T12:13:29.951Z,52.25
2023-02-02T12:16:08.740Z,52.44
2023-02-02T12:18:45.931Z,52.72
2023-02-02T12:21:38.965Z,53.04
2023-02-02T12:24:32.423Z,53.00
2023-02-02T12:27:30.906Z,52.87
2023-02-02T12:29:59.284Z,52.63
2023-02-02T12:32:32.782Z,52.46
2023-02-02T12:35:16.216Z,52.31
2023-02-02T12:38:03.742Z,52.26
2023-02-02T12:40:47.813Z,52.46
2023-02-02T12:43:33.059Z,52.43
2023-02-02T12:46:11.887Z,52.59
2023-02-02T12:48:46.303Z,52.91
2023-02-02T12:51:42.941Z,53.18
2023-02-02T12:54:34.236Z,53.51
2023-02-02T12:57:07.452Z,53.99
2023-02-02T12:59:50.903Z,54.02
2023-02-02T13:02:34.233Z,53.98
2023-02-02T13:05:24.807Z,54.04
2023-02-02T13:07:56.554Z,54.25
2023-02-02T13:10:36.909Z,54.24
2023-02-02T13:13:16.806Z,54.50
2023-02-02T13:15:50.174Z,54.58
2023-02-02T13:18:30.527Z,54.68
2023-02-02T13:21:01.256Z,55.00
2023-02-02T13:23:36.698Z,54.99
2023-02-02T13:26:07.311Z,55.05
2023-02-02T13:28:51.965Z,55.12
2023-02-02T13:31:28.567Z,55.41
2023-02-02T13:34:17.623Z,55.47
2023-02-02T13:36:49.489Z,55.88
2023-02-02T13:39:27.795Z,56.13
2023-02-02T13:41:56.583Z,56.43
2023-02-02T13:44:32.960Z,56.54
2023-02-02T13:47:05.969Z,56.45
2023-02-02T13:49:52.739Z,56.24
2023-02-02T13:53:08.634Z,56.13
2023-02-02T13:55:45.820Z,55.88
2023-02-02T13:58:44.817Z,56.08
2023-02-02T14:01:13.447Z,57.49
2023-02-02T14:03:55.625Z,57.96
2023-02-02T14:06:25.010Z,58.60
2023-02-02T14:09:00.652Z,59.13
2023-02-02T14:11:34.467Z,59.32
2023-02-02T14:14:35.818Z,59.46
2023-02-02T14:17:17.604Z,60.07
2023-02-02T14:19:53.761Z,60.24
2023-02-02T14:22:48.661Z,60.30
2023-02-02T14:25:37.219Z,60.53
2023-02-02T14:28:45.042Z,60.58
2023-02-02T14:31:29.340Z,60.75
2023-02-02T14:34:27.440Z,60.90
2023-02-02T14:37:21.109Z,61.02
2023-02-02T14:40:11.330Z,60.96
2023-02-02T14:43:37.020Z,60.99
2023-02-02T14:46:15.161Z,61.28
2023-02-02T14:48:46.774Z,61.42
2023-02-02T14:51:19.458Z,61.55
2023-02-02T14:53:49.700Z,61.79
2023-02-02T14:56:18.367Z,61.93
2023-02-02T14:59:00.522Z,62.03
2023-02-02T15:01:31.464Z,62.32
2023-02-02T15:04:24.267Z,62.35
2023-02-02T15:06:53.353Z,62.64
2023-02-02T15:09:26.851Z,62.83
2023-02-02T15:12:07.211Z,62.76
2023-02-02T15:14:36.923Z,63.01
2023-02-02T15:17:48.619Z,63.17
2023-02-02T15:20:45.047Z,63.48
2023-02-02T15:23:36.565Z,63.52
2023-02-02T15:26:19.007Z,63.61
2023-02-02T15:28:49.609Z,63.65
2023-02-02T15:31:34.224Z,63.93
2023-02-02T15:34:05.292Z,63.96
2023-02-02T15:36:35.839Z,64.12
2023-02-02T15:39:34.117Z,64.16
2023-02-02T15:42:22.764Z,64.20
2023-02-02T15:44:51.554Z,64.32
2023-02-02T15:47:22.842Z,64.33
2023-02-02T15:49:51.380Z,64.48
2023-02-02T15:52:28.283Z,64.52
2023-02-02T15:54:58.039Z,64.49
2023-02-02T15:57:35.251Z,64.78
2023-02-02T16:00:43.398Z,64.98
2023-02-02T16:03:13.278Z,65.02
2023-02-02T16:05:44.526Z,65.15
2023-02-02T16:08:30.104Z,65.04
2023-02-02T16:11:12.526Z,65.29
2023-02-02T16:13:42.425Z,65.11
2023-02-02T16:16:25.134Z,65.19
2023-02-02T16:19:09.210Z,65.09
2023-02-02T16:21:43.304Z,65.01
2023-02-02T16:24:17.717Z,65.05
2023-02-02T16:26:45.965Z,65.21
2023-02-02T16:29:17.664Z,64.97
2023-02-02T16:31:46.979Z,64.94
2023-02-02T16:34:19.624Z,64.93
2023-02-02T16:37:28.349Z,65.11
2023-02-02T16:39:58.646Z,65.12
2023-02-02T16:42:29.440Z,65.04
2023-02-02T16:44:59.525Z,65.04
2023-02-02T16:47:28.174Z,65.02
2023-02-02T16:50:08.971Z,64.75
2023-02-02T16:52:57.628Z,64.89
2023-02-02T16:55:36.265Z,64.86
2023-02-02T16:58:21.241Z,64.88
2023-02-02T17:01:15.020Z,64.72
2023-02-02T17:03:52.891Z,64.62
2023-02-02T17:06:45.942Z,64.66
2023-02-02T17:09:37.757Z,64.74
2023-02-02T17:12:35.356Z,64.76
2023-02-02T17:15:29.408Z,64.52
2023-02-02T17:17:58.409Z,64.82
2023-02-02T17:20:27.195Z,64.87
2023-02-02T17:23:07.253Z,64.75
2023-02-02T17:25:43.108Z,64.62
2023-02-02T17:28:14.348Z,64.64
2023-02-02T17:30:43.877Z,64.79
2023-02-02T17:33:15.131Z,64.69
2023-02-02T17:35:54.903Z,64.63
2023-02-02T17:38:25.175Z,64.55
2023-02-02T17:40:55.281Z,64.41
2023-02-02T17:43:27.348Z,64.69
2023-02-02T17:45:55.882Z,64.65
2023-02-02T17:48:24.417Z,64.67
2023-02-02T17:50:52.892Z,64.53
2023-02-02T17:53:21.720Z,64.56
2023-02-02T17:55:51.689Z,64.60
2023-02-02T17:58:20.349Z,64.65
2023-02-02T18:00:53.459Z,65.07
2023-02-02T18:03:24.117Z,65.21
2023-02-02T18:05:52.687Z,65.18
2023-02-02T18:08:21.370Z,65.41
2023-02-02T18:10:50.662Z,65.54
2023-02-02T18:13:20.385Z,65.78
2023-02-02T18:15:49.499Z,65.61
2023-02-02T18:18:17.958Z,65.45
2023-02-02T18:20:48.172Z,65.44
2023-02-02T18:23:17.371Z,65.32
2023-02-02T18:25:45.654Z,65.34
2023-02-02T18:28:17.701Z,65.37
2023-02-02T18:30:47.137Z,65.64
2023-02-02T18:33:18.155Z,65.63
2023-02-02T18:35:47.455Z,65.56
2023-02-02T18:38:16.259Z,65.73
2023-02-02T18:40:44.514Z,65.74
2023-02-02T18:43:13.095Z,65.97
2023-02-02T18:45:41.984Z,66.15
2023-02-02T18:48:10.887Z,65.33
2023-02-02T18:50:39.152Z,64.79
2023-02-02T18:53:07.733Z,64.69
2023-02-02T18:55:37.853Z,64.79
2023-02-02T18:58:10.954Z,64.81
2023-02-02T19:00:39.545Z,64.84
2023-02-02T19:03:08.547Z,64.68
2023-02-02T19:05:55.643Z,64.58
2023-02-02T19:08:24.522Z,64.59
2023-02-02T19:10:58.127Z,64.61
2023-02-02T19:13:28.144Z,64.55
2023-02-02T19:15:57.607Z,64.71
2023-02-02T19:18:31.584Z,64.37
2023-02-02T19:21:00.338Z,64.31
2023-02-02T19:23:30.048Z,64.30
2023-02-02T19:25:58.531Z,64.27
2023-02-02T19:28:28.545Z,64.25
2023-02-02T19:30:58.638Z,63.98
2023-02-02T19:33:37.147Z,63.72
2023-02-02T19:36:08.309Z,63.86
2023-02-02T19:38:37.725Z,63.83
2023-02-02T19:41:17.777Z,63.70
2023-02-02T19:43:48.099Z,63.78
2023-02-02T19:46:23.572Z,63.64
2023-02-02T19:48:54.189Z,63.56
2023-02-02T19:51:44.056Z,63.66
2023-02-02T19:54:26.098Z,63.59
2023-02-02T19:57:32.393Z,63.84
2023-02-02T20:00:01.212Z,63.73
2023-02-02T20:02:34.916Z,63.67
2023-02-02T20:05:23.161Z,63.44
2023-02-02T20:08:00.693Z,63.18
2023-02-02T20:10:39.678Z,63.11
2023-02-02T20:13:49.223Z,62.95
2023-02-02T20:16:22.560Z,62.70
2023-02-02T20:18:53.989Z,62.48
2023-02-02T20:21:34.026Z,62.19
2023-02-02T20:24:02.491Z,61.97
2023-02-02T20:26:35.939Z,61.74
2023-02-02T20:29:20.238Z,61.30
2023-02-02T20:31:49.139Z,61.25
2023-02-02T20:34:21.751Z,61.12
2023-02-02T20:36:50.714Z,61.05
2023-02-02T20:39:32.356Z,61.00
2023-02-02T20:42:00.873Z,61.00
2023-02-02T20:44:30.385Z,61.03
2023-02-02T20:47:00.659Z,61.04
2023-02-02T20:49:31.965Z,60.67
2023-02-02T20:52:02.186Z,60.45
2023-02-02T20:54:31.773Z,60.26
2023-02-02T20:57:00.380Z,60.25
2023-02-02T20:59:29.558Z,60.22
2023-02-02T21:01:59.073Z,60.32
2023-02-02T21:04:28.413Z,60.29
2023-02-02T21:06:59.695Z,60.20
2023-02-02T21:09:30.233Z,59.88
2023-02-02T21:12:00.964Z,59.60
2023-02-02T21:14:29.954Z,59.53
2023-02-02T21:17:12.927Z,59.77
2023-02-02T21:19:44.527Z,60.01
2023-02-02T21:22:12.910Z,60.28
2023-02-02T21:24:42.816Z,60.37
2023-02-02T21:27:11.543Z,59.98
2023-02-02T21:29:40.912Z,59.75
2023-02-02T21:32:09.548Z,59.75
2023-02-02T21:34:38.012Z,59.98
2023-02-02T21:37:14.452Z,60.33
2023-02-02T21:39:49.788Z,60.43
2023-02-02T21:42:20.379Z,60.26
2023-02-02T21:44:53.891Z,60.26
2023-02-02T21:47:22.223Z,60.19
2023-02-02T21:49:51.017Z,60.10
2023-02-02T21:52:19.975Z,60.20
2023-02-02T21:54:49.711Z,60.17
2023-02-02T21:57:26.858Z,59.84
2023-02-02T21:59:56.242Z,59.63
2023-02-02T22:02:45.158Z,59.56
2023-02-02T22:05:35.925Z,59.59
2023-02-02T22:08:18.608Z,59.51
2023-02-02T22:10:47.448Z,59.91
2023-02-02T22:13:18.469Z,60.05
2023-02-02T22:15:52.010Z,60.24
2023-02-02T22:18:22.389Z,59.99
2023-02-02T22:20:51.815Z,60.13
2023-02-02T22:23:21.719Z,60.14
2023-02-02T22:25:51.884Z,60.02
2023-02-02T22:28:23.965Z,60.17
2023-02-02T22:30:53.170Z,60.04
2023-02-02T22:33:22.385Z,59.89
2023-02-02T22:35:51.075Z,59.72
2023-02-02T22:38:21.494Z,59.42
2023-02-02T22:40:50.623Z,59.36
2023-02-02T22:43:20.220Z,59.43
2023-02-02T22:45:49.423Z,59.85
2023-02-02T22:48:18.284Z,60.00
2023-02-02T22:50:47.489Z,59.89
2023-02-02T22:53:15.976Z,60.13
2023-02-02T22:55:44.552Z,60.03
2023-02-02T22:58:13.130Z,60.06
2023-02-02T23:00:42.025Z,60.24
2023-02-02T23:03:10.666Z,60.21
2023-02-02T23:05:39.389Z,60.11
2023-02-02T23:08:08.286Z,60.11
2023-02-02T23:10:56.428Z,60.02
2023-02-02T23:13:24.644Z,59.91
2023-02-02T23:15:52.936Z,59.88
2023-02-02T23:18:22.377Z,59.69
2023-02-02T23:20:50.852Z,59.89
2023-02-02T23:23:19.341Z,59.85
2023-02-02T23:25:47.606Z,59.70
2023-02-02T23:28:15.955Z,59.29
2023-02-02T23:30:45.056Z,59.48
2023-02-02T23:33:13.567Z,59.52
2023-02-02T23:35:42.153Z,59.47
2023-02-02T23:38:10.826Z,59.79
2023-02-02T23:40:39.513Z,59.91
2023-02-02T23:43:08.824Z,60.02
2023-02-02T23:45:37.426Z,60.47
2023-02-02T23:48:06.910Z,60.67
2023-02-02T23:50:38.060Z,60.79
2023-02-02T23:53:07.140Z,61.07
2023-02-02T23:55:37.568Z,61.18
2023-02-02T23:58:06.351Z,61.48
